sensor_id;sensor_type;location;lat;lon;timestamp;P1;durP1;ratioP1;P2;durP2;ratioP2
15293;SDS011;7748;52.474;13.454;2023-03-04T00:00:39;37.93;;;18.03;;
15293;SDS011;7748;52.474;13.454;2023-03-04T00:03:10;35.87;;;17.93;;
15293;SDS011;7748;52.474;13.454;2023-03-04T00:05:41;31.87;;;14.90;;
15293;SDS011;7748;52.474;13.454;2023-03-04T00:08:09;35.77;;;16.50;;
15293;SDS011;7748;52.474;13.454;2023-03-04T00:10:38;29.53;;;13.43;;
15293;SDS011;7748;52.474;13.454;2023-03-04T00:13:06;33.80;;;15.03;;
15293;SDS011;7748;52.474;13.454;2023-03-04T00:15:34;25.83;;;13.90;;
15293;SDS011;7748;52.474;13.454;2023-03-04T00:18:02;30.17;;;15.27;;
15293;SDS011;7748;52.474;13.454;2023-03-04T00:20:30;34.23;;;16.40;;
15293;SDS011;7748;52.474;13.454;2023-03-04T00:22:57;32.63;;;14.87;;
15293;SDS011;7748;52.474;13.454;2023-03-04T00:25:25;31.33;;;15.07;;
15293;SDS011;7748;52.474;13.454;2023-03-04T00:27:54;35.07;;;15.90;;
15293;SDS011;7748;52.474;13.454;2023-03-04T00:30:23;33.17;;;14.97;;
15293;SDS011;7748;52.474;13.454;2023-03-04T00:32:52;34.40;;;15.83;;
15293;SDS011;7748;52.474;13.454;2023-03-04T00:35:20;37.47;;;16.40;;
15293;SDS011;7748;52.474;13.454;2023-03-04T00:37:48;30.93;;;15.83;;
15293;SDS011;7748;52.474;13.454;2023-03-04T00:40:16;30.00;;;13.50;;
15293;SDS011;7748;52.474;13.454;2023-03-04T00:42:44;31.93;;;14.80;;
15293;SDS011;7748;52.474;13.454;2023-03-04T00:45:13;30.77;;;14.70;;
15293;SDS011;7748;52.474;13.454;2023-03-04T00:47:41;29.10;;;14.57;;
15293;SDS011;7748;52.474;13.454;2023-03-04T00:50:10;35.40;;;15.90;;
15293;SDS011;7748;52.474;13.454;2023-03-04T00:52:38;35.83;;;14.73;;
15293;SDS011;7748;52.474;13.454;2023-03-04T00:55:07;35.20;;;14.70;;
15293;SDS011;7748;52.474;13.454;2023-03-04T00:57:35;30.63;;;13.90;;
15293;SDS011;7748;52.474;13.454;2023-03-04T01:00:03;24.80;;;12.17;;
15293;SDS011;7748;52.474;13.454;2023-03-04T01:02:33;43.87;;;12.27;;
15293;SDS011;7748;52.474;13.454;2023-03-04T01:05:01;35.17;;;13.63;;
15293;SDS011;7748;52.474;13.454;2023-03-04T01:07:29;25.47;;;12.67;;
15293;SDS011;7748;52.474;13.454;2023-03-04T01:09:59;34.43;;;13.50;;
15293;SDS011;7748;52.474;13.454;2023-03-04T01:12:27;29.13;;;12.77;;
15293;SDS011;7748;52.474;13.454;2023-03-04T01:14:55;30.10;;;12.93;;
15293;SDS011;7748;52.474;13.454;2023-03-04T01:17:22;34.07;;;13.27;;
15293;SDS011;7748;52.474;13.454;2023-03-04T01:19:52;31.70;;;13.30;;
15293;SDS011;7748;52.474;13.454;2023-03-04T01:22:19;28.50;;;11.93;;
15293;SDS011;7748;52.474;13.454;2023-03-04T01:24:47;24.57;;;11.10;;
15293;SDS011;7748;52.474;13.454;2023-03-04T01:27:15;29.27;;;13.67;;
15293;SDS011;7748;52.474;13.454;2023-03-04T01:29:43;28.10;;;11.93;;
15293;SDS011;7748;52.474;13.454;2023-03-04T01:32:11;25.13;;;12.17;;
15293;SDS011;7748;52.474;13.454;2023-03-04T01:34:39;26.27;;;12.57;;
15293;SDS011;7748;52.474;13.454;2023-03-04T01:37:08;29.13;;;12.37;;
15293;SDS011;7748;52.474;13.454;2023-03-04T01:39:39;31.30;;;10.60;;
15293;SDS011;7748;52.474;13.454;2023-03-04T01:42:08;29.33;;;8.97;;
15293;SDS011;7748;52.474;13.454;2023-03-04T01:44:44;24.30;;;10.47;;
15293;SDS011;7748;52.474;13.454;2023-03-04T01:47:13;24.20;;;10.23;;
15293;SDS011;7748;52.474;13.454;2023-03-04T01:49:42;30.87;;;11.37;;
15293;SDS011;7748;52.474;13.454;2023-03-04T01:52:12;24.43;;;9.93;;
15293;SDS011;7748;52.474;13.454;2023-03-04T01:54:40;25.90;;;10.33;;
15293;SDS011;7748;52.474;13.454;2023-03-04T01:57:14;20.10;;;9.37;;
15293;SDS011;7748;52.474;13.454;2023-03-04T01:59:43;23.30;;;9.43;;
15293;SDS011;7748;52.474;13.454;2023-03-04T02:02:12;19.27;;;8.47;;
15293;SDS011;7748;52.474;13.454;2023-03-04T02:04:41;23.77;;;9.53;;
15293;SDS011;7748;52.474;13.454;2023-03-04T02:07:09;24.57;;;8.90;;
15293;SDS011;7748;52.474;13.454;2023-03-04T02:09:38;32.50;;;9.60;;
15293;SDS011;7748;52.474;13.454;2023-03-04T02:12:06;19.60;;;7.57;;
15293;SDS011;7748;52.474;13.454;2023-03-04T02:14:33;16.90;;;7.77;;
15293;SDS011;7748;52.474;13.454;2023-03-04T02:17:01;16.90;;;7.70;;
15293;SDS011;7748;52.474;13.454;2023-03-04T02:19:34;22.70;;;8.70;;
15293;SDS011;7748;52.474;13.454;2023-03-04T02:22:08;23.73;;;7.97;;
15293;SDS011;7748;52.474;13.454;2023-03-04T02:24:40;22.13;;;7.60;;
15293;SDS011;7748;52.474;13.454;2023-03-04T02:27:13;18.97;;;6.93;;
15293;SDS011;7748;52.474;13.454;2023-03-04T02:29:41;24.10;;;7.60;;
15293;SDS011;7748;52.474;13.454;2023-03-04T02:32:09;13.57;;;7.20;;
15293;SDS011;7748;52.474;13.454;2023-03-04T02:34:39;17.80;;;6.87;;
15293;SDS011;7748;52.474;13.454;2023-03-04T02:37:11;21.63;;;7.57;;
15293;SDS011;7748;52.474;13.454;2023-03-04T02:39:40;19.10;;;6.90;;
15293;SDS011;7748;52.474;13.454;2023-03-04T02:42:10;23.67;;;6.63;;
15293;SDS011;7748;52.474;13.454;2023-03-04T02:44:40;16.03;;;6.33;;
15293;SDS011;7748;52.474;13.454;2023-03-04T02:47:12;23.03;;;6.50;;
15293;SDS011;7748;52.474;13.454;2023-03-04T02:49:43;16.27;;;7.27;;
15293;SDS011;7748;52.474;13.454;2023-03-04T02:52:12;20.73;;;6.10;;
15293;SDS011;7748;52.474;13.454;2023-03-04T02:54:43;16.17;;;6.00;;
15293;SDS011;7748;52.474;13.454;2023-03-04T02:57:11;14.60;;;5.60;;
15293;SDS011;7748;52.474;13.454;2023-03-04T02:59:42;25.40;;;6.37;;
15293;SDS011;7748;52.474;13.454;2023-03-04T03:02:10;13.07;;;5.97;;
15293;SDS011;7748;52.474;13.454;2023-03-04T03:04:38;16.57;;;6.00;;
15293;SDS011;7748;52.474;13.454;2023-03-04T03:07:06;22.23;;;6.53;;
15293;SDS011;7748;52.474;13.454;2023-03-04T03:09:35;16.50;;;6.23;;
15293;SDS011;7748;52.474;13.454;2023-03-04T03:12:03;15.30;;;5.43;;
15293;SDS011;7748;52.474;13.454;2023-03-04T03:14:31;21.47;;;6.67;;
15293;SDS011;7748;52.474;13.454;2023-03-04T03:17:00;20.67;;;6.90;;
15293;SDS011;7748;52.474;13.454;2023-03-04T03:19:28;13.90;;;6.20;;
15293;SDS011;7748;52.474;13.454;2023-03-04T03:21:56;19.73;;;5.97;;
15293;SDS011;7748;52.474;13.454;2023-03-04T03:24:24;17.50;;;6.07;;
15293;SDS011;7748;52.474;13.454;2023-03-04T03:26:52;17.30;;;6.63;;
15293;SDS011;7748;52.474;13.454;2023-03-04T03:29:19;18.17;;;6.27;;
15293;SDS011;7748;52.474;13.454;2023-03-04T03:31:47;18.37;;;6.87;;
15293;SDS011;7748;52.474;13.454;2023-03-04T03:34:17;18.60;;;6.83;;
15293;SDS011;7748;52.474;13.454;2023-03-04T03:36:44;17.10;;;5.70;;
15293;SDS011;7748;52.474;13.454;2023-03-04T03:39:12;18.07;;;6.03;;
15293;SDS011;7748;52.474;13.454;2023-03-04T03:41:43;22.73;;;6.73;;
15293;SDS011;7748;52.474;13.454;2023-03-04T03:44:11;16.67;;;6.87;;
15293;SDS011;7748;52.474;13.454;2023-03-04T03:46:39;22.23;;;7.13;;
15293;SDS011;7748;52.474;13.454;2023-03-04T03:49:07;21.77;;;6.40;;
15293;SDS011;7748;52.474;13.454;2023-03-04T03:51:36;15.13;;;5.77;;
15293;SDS011;7748;52.474;13.454;2023-03-04T03:54:04;12.63;;;5.67;;
15293;SDS011;7748;52.474;13.454;2023-03-04T03:56:32;13.70;;;5.47;;
15293;SDS011;7748;52.474;13.454;2023-03-04T03:59:00;25.67;;;7.27;;
15293;SDS011;7748;52.474;13.454;2023-03-04T04:01:28;22.93;;;6.63;;
15293;SDS011;7748;52.474;13.454;2023-03-04T04:03:56;18.30;;;7.27;;
15293;SDS011;7748;52.474;13.454;2023-03-04T04:06:25;20.40;;;8.70;;
15293;SDS011;7748;52.474;13.454;2023-03-04T04:08:54;18.30;;;6.13;;
15293;SDS011;7748;52.474;13.454;2023-03-04T04:11:22;23.20;;;7.03;;
15293;SDS011;7748;52.474;13.454;2023-03-04T04:13:50;23.90;;;8.77;;
15293;SDS011;7748;52.474;13.454;2023-03-04T04:16:18;17.07;;;7.50;;
15293;SDS011;7748;52.474;13.454;2023-03-04T04:18:46;18.13;;;7.20;;
15293;SDS011;7748;52.474;13.454;2023-03-04T04:21:14;20.83;;;6.60;;
15293;SDS011;7748;52.474;13.454;2023-03-04T04:23:41;14.77;;;5.40;;
15293;SDS011;7748;52.474;13.454;2023-03-04T04:26:12;16.00;;;5.27;;
15293;SDS011;7748;52.474;13.454;2023-03-04T04:28:40;18.43;;;6.20;;
15293;SDS011;7748;52.474;13.454;2023-03-04T04:31:08;15.87;;;6.03;;
15293;SDS011;7748;52.474;13.454;2023-03-04T04:33:36;23.03;;;7.03;;
15293;SDS011;7748;52.474;13.454;2023-03-04T04:36:04;21.50;;;6.47;;
15293;SDS011;7748;52.474;13.454;2023-03-04T04:38:33;18.17;;;5.73;;
15293;SDS011;7748;52.474;13.454;2023-03-04T04:41:01;16.40;;;5.60;;
15293;SDS011;7748;52.474;13.454;2023-03-04T04:43:31;18.77;;;6.07;;
15293;SDS011;7748;52.474;13.454;2023-03-04T04:45:59;19.80;;;6.47;;
15293;SDS011;7748;52.474;13.454;2023-03-04T04:48:27;22.80;;;6.40;;
15293;SDS011;7748;52.474;13.454;2023-03-04T04:50:55;16.30;;;6.20;;
15293;SDS011;7748;52.474;13.454;2023-03-04T04:53:22;18.93;;;6.03;;
15293;SDS011;7748;52.474;13.454;2023-03-04T04:55:50;18.30;;;6.73;;
15293;SDS011;7748;52.474;13.454;2023-03-04T04:58:18;10.23;;;4.73;;
15293;SDS011;7748;52.474;13.454;2023-03-04T05:00:47;15.50;;;5.20;;
15293;SDS011;7748;52.474;13.454;2023-03-04T05:03:15;12.50;;;5.00;;
15293;SDS011;7748;52.474;13.454;2023-03-04T05:05:44;35.53;;;6.67;;
15293;SDS011;7748;52.474;13.454;2023-03-04T05:08:11;11.50;;;4.87;;
15293;SDS011;7748;52.474;13.454;2023-03-04T05:10:39;15.53;;;4.97;;
15293;SDS011;7748;52.474;13.454;2023-03-04T05:13:07;19.07;;;5.50;;
15293;SDS011;7748;52.474;13.454;2023-03-04T05:15:36;15.63;;;5.10;;
15293;SDS011;7748;52.474;13.454;2023-03-04T05:18:05;18.53;;;6.27;;
15293;SDS011;7748;52.474;13.454;2023-03-04T05:20:33;17.57;;;4.90;;
15293;SDS011;7748;52.474;13.454;2023-03-04T05:23:01;10.93;;;4.80;;
15293;SDS011;7748;52.474;13.454;2023-03-04T05:25:29;15.27;;;5.77;;
15293;SDS011;7748;52.474;13.454;2023-03-04T05:27:57;14.07;;;5.17;;
15293;SDS011;7748;52.474;13.454;2023-03-04T05:30:26;11.53;;;4.70;;
15293;SDS011;7748;52.474;13.454;2023-03-04T05:32:54;14.70;;;5.17;;
15293;SDS011;7748;52.474;13.454;2023-03-04T05:35:26;11.47;;;4.83;;
15293;SDS011;7748;52.474;13.454;2023-03-04T05:37:54;8.67;;;4.60;;
15293;SDS011;7748;52.474;13.454;2023-03-04T05:40:22;11.37;;;4.00;;
15293;SDS011;7748;52.474;13.454;2023-03-04T05:42:51;10.30;;;4.17;;
15293;SDS011;7748;52.474;13.454;2023-03-04T05:45:18;15.43;;;4.33;;
15293;SDS011;7748;52.474;13.454;2023-03-04T05:47:46;17.00;;;5.27;;
15293;SDS011;7748;52.474;13.454;2023-03-04T05:50:14;17.37;;;5.70;;
15293;SDS011;7748;52.474;13.454;2023-03-04T05:52:44;7.97;;;4.10;;
15293;SDS011;7748;52.474;13.454;2023-03-04T05:55:12;9.23;;;4.07;;
15293;SDS011;7748;52.474;13.454;2023-03-04T05:57:40;11.87;;;4.57;;
15293;SDS011;7748;52.474;13.454;2023-03-04T06:00:08;11.53;;;4.80;;
15293;SDS011;7748;52.474;13.454;2023-03-04T06:02:38;8.97;;;4.23;;
15293;SDS011;7748;52.474;13.454;2023-03-04T06:05:08;10.47;;;3.83;;
15293;SDS011;7748;52.474;13.454;2023-03-04T06:07:36;16.43;;;4.27;;
15293;SDS011;7748;52.474;13.454;2023-03-04T06:10:06;10.87;;;3.67;;
15293;SDS011;7748;52.474;13.454;2023-03-04T06:12:35;12.90;;;4.50;;
15293;SDS011;7748;52.474;13.454;2023-03-04T06:15:03;16.47;;;4.37;;
15293;SDS011;7748;52.474;13.454;2023-03-04T06:17:32;8.43;;;4.17;;
15293;SDS011;7748;52.474;13.454;2023-03-04T06:20:00;10.90;;;3.70;;
15293;SDS011;7748;52.474;13.454;2023-03-04T06:22:30;11.30;;;4.30;;
15293;SDS011;7748;52.474;13.454;2023-03-04T06:24:58;10.17;;;3.77;;
15293;SDS011;7748;52.474;13.454;2023-03-04T06:27:28;9.87;;;3.93;;
15293;SDS011;7748;52.474;13.454;2023-03-04T06:29:56;17.43;;;4.43;;
15293;SDS011;7748;52.474;13.454;2023-03-04T06:32:24;13.33;;;4.40;;
15293;SDS011;7748;52.474;13.454;2023-03-04T06:34:52;9.57;;;4.40;;
15293;SDS011;7748;52.474;13.454;2023-03-04T06:37:20;14.30;;;4.37;;
15293;SDS011;7748;52.474;13.454;2023-03-04T06:39:48;10.53;;;3.57;;
15293;SDS011;7748;52.474;13.454;2023-03-04T06:42:16;5.73;;;4.07;;
15293;SDS011;7748;52.474;13.454;2023-03-04T06:44:46;11.17;;;3.27;;
15293;SDS011;7748;52.474;13.454;2023-03-04T06:47:14;11.63;;;3.80;;
15293;SDS011;7748;52.474;13.454;2023-03-04T06:49:43;11.23;;;4.83;;
15293;SDS011;7748;52.474;13.454;2023-03-04T06:52:11;10.63;;;3.40;;
15293;SDS011;7748;52.474;13.454;2023-03-04T06:54:39;13.20;;;3.57;;
15293;SDS011;7748;52.474;13.454;2023-03-04T06:57:07;13.80;;;4.67;;
15293;SDS011;7748;52.474;13.454;2023-03-04T06:59:35;8.80;;;4.43;;
15293;SDS011;7748;52.474;13.454;2023-03-04T07:02:04;6.73;;;3.80;;
15293;SDS011;7748;52.474;13.454;2023-03-04T07:04:32;13.23;;;4.47;;
15293;SDS011;7748;52.474;13.454;2023-03-04T07:07:00;11.67;;;3.97;;
15293;SDS011;7748;52.474;13.454;2023-03-04T07:09:28;13.50;;;4.57;;
15293;SDS011;7748;52.474;13.454;2023-03-04T07:11:56;9.93;;;3.80;;
15293;SDS011;7748;52.474;13.454;2023-03-04T07:14:24;17.70;;;4.20;;
15293;SDS011;7748;52.474;13.454;2023-03-04T07:16:53;12.37;;;4.57;;
15293;SDS011;7748;52.474;13.454;2023-03-04T07:19:22;12.53;;;4.23;;
15293;SDS011;7748;52.474;13.454;2023-03-04T07:21:50;12.40;;;4.73;;
15293;SDS011;7748;52.474;13.454;2023-03-04T07:24:18;14.97;;;4.70;;
15293;SDS011;7748;52.474;13.454;2023-03-04T07:26:45;9.53;;;4.60;;
15293;SDS011;7748;52.474;13.454;2023-03-04T07:29:13;10.63;;;4.87;;
15293;SDS011;7748;52.474;13.454;2023-03-04T07:31:41;10.77;;;3.97;;
15293;SDS011;7748;52.474;13.454;2023-03-04T07:34:11;11.23;;;3.73;;
15293;SDS011;7748;52.474;13.454;2023-03-04T07:36:41;11.00;;;4.23;;
15293;SDS011;7748;52.474;13.454;2023-03-04T07:39:09;9.27;;;4.10;;
15293;SDS011;7748;52.474;13.454;2023-03-04T07:41:39;17.57;;;4.17;;
15293;SDS011;7748;52.474;13.454;2023-03-04T07:44:08;12.57;;;4.67;;
15293;SDS011;7748;52.474;13.454;2023-03-04T07:46:38;11.03;;;3.60;;
15293;SDS011;7748;52.474;13.454;2023-03-04T07:49:07;15.67;;;5.63;;
15293;SDS011;7748;52.474;13.454;2023-03-04T07:51:35;9.23;;;3.77;;
15293;SDS011;7748;52.474;13.454;2023-03-04T07:54:04;13.90;;;4.00;;
15293;SDS011;7748;52.474;13.454;2023-03-04T07:56:32;7.97;;;3.70;;
15293;SDS011;7748;52.474;13.454;2023-03-04T07:59:01;10.77;;;4.17;;
15293;SDS011;7748;52.474;13.454;2023-03-04T08:01:30;5.43;;;3.67;;
15293;SDS011;7748;52.474;13.454;2023-03-04T08:03:59;11.93;;;3.07;;
15293;SDS011;7748;52.474;13.454;2023-03-04T08:06:28;13.33;;;5.40;;
15293;SDS011;7748;52.474;13.454;2023-03-04T08:08:57;9.90;;;4.80;;
15293;SDS011;7748;52.474;13.454;2023-03-04T08:11:28;6.63;;;4.60;;
15293;SDS011;7748;52.474;13.454;2023-03-04T08:13:56;15.40;;;4.77;;
15293;SDS011;7748;52.474;13.454;2023-03-04T08:16:24;8.07;;;4.67;;
15293;SDS011;7748;52.474;13.454;2023-03-04T08:18:54;10.63;;;5.00;;
15293;SDS011;7748;52.474;13.454;2023-03-04T08:21:23;8.93;;;4.87;;
15293;SDS011;7748;52.474;13.454;2023-03-04T08:23:52;9.93;;;5.43;;
15293;SDS011;7748;52.474;13.454;2023-03-04T08:26:22;6.73;;;5.23;;
15293;SDS011;7748;52.474;13.454;2023-03-04T08:28:54;10.30;;;5.20;;
15293;SDS011;7748;52.474;13.454;2023-03-04T08:31:22;7.53;;;4.00;;
15293;SDS011;7748;52.474;13.454;2023-03-04T08:33:51;5.80;;;3.60;;
15293;SDS011;7748;52.474;13.454;2023-03-04T08:36:19;8.60;;;3.83;;
15293;SDS011;7748;52.474;13.454;2023-03-04T08:38:47;7.87;;;3.53;;
15293;SDS011;7748;52.474;13.454;2023-03-04T08:41:15;15.93;;;3.57;;
15293;SDS011;7748;52.474;13.454;2023-03-04T08:43:43;7.37;;;3.57;;
15293;SDS011;7748;52.474;13.454;2023-03-04T08:46:12;5.90;;;2.27;;
15293;SDS011;7748;52.474;13.454;2023-03-04T08:48:40;5.83;;;3.10;;
15293;SDS011;7748;52.474;13.454;2023-03-04T08:51:08;5.57;;;2.70;;
15293;SDS011;7748;52.474;13.454;2023-03-04T08:53:38;5.53;;;3.40;;
15293;SDS011;7748;52.474;13.454;2023-03-04T08:56:06;6.33;;;4.17;;
15293;SDS011;7748;52.474;13.454;2023-03-04T08:58:35;8.27;;;3.23;;
15293;SDS011;7748;52.474;13.454;2023-03-04T09:01:04;4.47;;;2.67;;
15293;SDS011;7748;52.474;13.454;2023-03-04T09:03:35;8.33;;;2.43;;
15293;SDS011;7748;52.474;13.454;2023-03-04T09:06:03;7.47;;;2.27;;
15293;SDS011;7748;52.474;13.454;2023-03-04T09:08:32;6.20;;;2.57;;
15293;SDS011;7748;52.474;13.454;2023-03-04T09:11:01;6.13;;;2.73;;
15293;SDS011;7748;52.474;13.454;2023-03-04T09:13:30;7.40;;;2.73;;
15293;SDS011;7748;52.474;13.454;2023-03-04T09:15:59;8.37;;;2.90;;
15293;SDS011;7748;52.474;13.454;2023-03-04T09:18:27;6.27;;;2.80;;
15293;SDS011;7748;52.474;13.454;2023-03-04T09:20:56;9.37;;;2.50;;
15293;SDS011;7748;52.474;13.454;2023-03-04T09:23:24;9.93;;;2.70;;
15293;SDS011;7748;52.474;13.454;2023-03-04T09:25:53;11.07;;;2.93;;
15293;SDS011;7748;52.474;13.454;2023-03-04T09:28:21;8.47;;;2.83;;
15293;SDS011;7748;52.474;13.454;2023-03-04T09:30:49;5.67;;;2.83;;
15293;SDS011;7748;52.474;13.454;2023-03-04T09:33:16;4.20;;;2.80;;
15293;SDS011;7748;52.474;13.454;2023-03-04T09:35:45;6.93;;;2.30;;
15293;SDS011;7748;52.474;13.454;2023-03-04T09:38:15;5.07;;;2.50;;
15293;SDS011;7748;52.474;13.454;2023-03-04T09:40:43;7.47;;;2.77;;
15293;SDS011;7748;52.474;13.454;2023-03-04T09:43:16;4.20;;;2.77;;
15293;SDS011;7748;52.474;13.454;2023-03-04T09:45:47;7.63;;;3.00;;
15293;SDS011;7748;52.474;13.454;2023-03-04T09:48:19;3.73;;;2.23;;
15293;SDS011;7748;52.474;13.454;2023-03-04T09:50:56;3.67;;;2.33;;
15293;SDS011;7748;52.474;13.454;2023-03-04T09:53:36;6.43;;;2.50;;
15293;SDS011;7748;52.474;13.454;2023-03-04T09:56:11;5.33;;;2.00;;
15293;SDS011;7748;52.474;13.454;2023-03-04T09:58:45;11.80;;;2.77;;
15293;SDS011;7748;52.474;13.454;2023-03-04T10:01:23;6.77;;;2.27;;
15293;SDS011;7748;52.474;13.454;2023-03-04T10:03:58;4.23;;;2.20;;
15293;SDS011;7748;52.474;13.454;2023-03-04T10:06:30;6.03;;;2.43;;
15293;SDS011;7748;52.474;13.454;2023-03-04T10:09:00;5.40;;;2.13;;
15293;SDS011;7748;52.474;13.454;2023-03-04T10:11:31;7.77;;;2.50;;
15293;SDS011;7748;52.474;13.454;2023-03-04T10:14:07;5.97;;;2.20;;
15293;SDS011;7748;52.474;13.454;2023-03-04T10:16:50;6.67;;;2.77;;
15293;SDS011;7748;52.474;13.454;2023-03-04T10:19:22;7.10;;;2.43;;
15293;SDS011;7748;52.474;13.454;2023-03-04T10:21:57;7.70;;;3.10;;
15293;SDS011;7748;52.474;13.454;2023-03-04T10:24:27;6.77;;;2.30;;
15293;SDS011;7748;52.474;13.454;2023-03-04T10:26:57;8.27;;;2.63;;
15293;SDS011;7748;52.474;13.454;2023-03-04T10:29:30;4.43;;;2.23;;
15293;SDS011;7748;52.474;13.454;2023-03-04T10:31:59;10.30;;;3.00;;
15293;SDS011;7748;52.474;13.454;2023-03-04T10:34:27;8.23;;;2.57;;
15293;SDS011;7748;52.474;13.454;2023-03-04T10:36:57;5.37;;;2.20;;
15293;SDS011;7748;52.474;13.454;2023-03-04T10:39:29;9.90;;;2.53;;
15293;SDS011;7748;52.474;13.454;2023-03-04T10:41:59;8.03;;;2.80;;
15293;SDS011;7748;52.474;13.454;2023-03-04T10:44:29;5.00;;;2.70;;
15293;SDS011;7748;52.474;13.454;2023-03-04T10:46:59;9.10;;;3.70;;
15293;SDS011;7748;52.474;13.454;2023-03-04T10:49:27;8.23;;;2.93;;
15293;SDS011;7748;52.474;13.454;2023-03-04T10:52:00;13.83;;;2.33;;
15293;SDS011;7748;52.474;13.454;2023-03-04T10:54:32;10.60;;;2.63;;
15293;SDS011;7748;52.474;13.454;2023-03-04T10:57:11;8.10;;;2.70;;
15293;SDS011;7748;52.474;13.454;2023-03-04T10:59:43;10.67;;;2.50;;
15293;SDS011;7748;52.474;13.454;2023-03-04T11:02:18;8.37;;;2.67;;
15293;SDS011;7748;52.474;13.454;2023-03-04T11:04:49;8.10;;;3.03;;
15293;SDS011;7748;52.474;13.454;2023-03-04T11:07:19;10.63;;;2.80;;
15293;SDS011;7748;52.474;13.454;2023-03-04T11:09:48;5.63;;;2.87;;
15293;SDS011;7748;52.474;13.454;2023-03-04T11:12:18;8.87;;;2.40;;
15293;SDS011;7748;52.474;13.454;2023-03-04T11:14:49;10.63;;;2.70;;
15293;SDS011;7748;52.474;13.454;2023-03-04T11:17:19;18.13;;;3.37;;
15293;SDS011;7748;52.474;13.454;2023-03-04T11:19:50;7.83;;;2.53;;
15293;SDS011;7748;52.474;13.454;2023-03-04T11:22:22;7.60;;;2.83;;
15293;SDS011;7748;52.474;13.454;2023-03-04T11:24:57;12.87;;;2.77;;
15293;SDS011;7748;52.474;13.454;2023-03-04T11:27:33;7.43;;;2.43;;
15293;SDS011;7748;52.474;13.454;2023-03-04T11:30:15;8.90;;;2.93;;
15293;SDS011;7748;52.474;13.454;2023-03-04T11:33:02;6.20;;;1.93;;
15293;SDS011;7748;52.474;13.454;2023-03-04T11:35:38;11.10;;;3.57;;
15293;SDS011;7748;52.474;13.454;2023-03-04T11:38:14;13.43;;;3.07;;
15293;SDS011;7748;52.474;13.454;2023-03-04T11:40:47;11.80;;;2.67;;
15293;SDS011;7748;52.474;13.454;2023-03-04T11:43:19;9.63;;;2.87;;
15293;SDS011;7748;52.474;13.454;2023-03-04T11:46:06;9.70;;;3.20;;
15293;SDS011;7748;52.474;13.454;2023-03-04T11:49:00;17.53;;;3.17;;
15293;SDS011;7748;52.474;13.454;2023-03-04T11:51:40;7.23;;;2.47;;
15293;SDS011;7748;52.474;13.454;2023-03-04T11:54:21;8.50;;;2.90;;
15293;SDS011;7748;52.474;13.454;2023-03-04T11:56:58;21.90;;;3.80;;
15293;SDS011;7748;52.474;13.454;2023-03-04T11:59:38;10.17;;;3.03;;
15293;SDS011;7748;52.474;13.454;2023-03-04T12:02:19;12.50;;;4.10;;
15293;SDS011;7748;52.474;13.454;2023-03-04T12:07:57;10.13;;;3.17;;
15293;SDS011;7748;52.474;13.454;2023-03-04T12:10:35;14.37;;;3.63;;
15293;SDS011;7748;52.474;13.454;2023-03-04T12:13:18;13.97;;;3.20;;
15293;SDS011;7748;52.474;13.454;2023-03-04T12:16:11;9.27;;;3.47;;
15293;SDS011;7748;52.474;13.454;2023-03-04T12:18:52;21.17;;;3.83;;
15293;SDS011;7748;52.474;13.454;2023-03-04T12:21:33;11.77;;;3.33;;
15293;SDS011;7748;52.474;13.454;2023-03-04T12:24:20;8.67;;;3.43;;
15293;SDS011;7748;52.474;13.454;2023-03-04T12:27:10;15.53;;;3.63;;
15293;SDS011;7748;52.474;13.454;2023-03-04T12:29:50;15.33;;;4.63;;
15293;SDS011;7748;52.474;13.454;2023-03-04T12:32:27;7.73;;;2.80;;
15293;SDS011;7748;52.474;13.454;2023-03-04T12:37:59;18.03;;;4.07;;
15293;SDS011;7748;52.474;13.454;2023-03-04T12:40:37;11.10;;;3.93;;
15293;SDS011;7748;52.474;13.454;2023-03-04T12:43:18;7.63;;;2.73;;
15293;SDS011;7748;52.474;13.454;2023-03-04T12:45:59;11.50;;;3.10;;
15293;SDS011;7748;52.474;13.454;2023-03-04T12:48:34;11.23;;;3.20;;
15293;SDS011;7748;52.474;13.454;2023-03-04T12:51:08;15.10;;;3.90;;
15293;SDS011;7748;52.474;13.454;2023-03-04T12:53:53;12.20;;;3.37;;
15293;SDS011;7748;52.474;13.454;2023-03-04T12:56:32;6.23;;;2.87;;
15293;SDS011;7748;52.474;13.454;2023-03-04T12:59:06;10.93;;;3.33;;
15293;SDS011;7748;52.474;13.454;2023-03-04T13:01:44;10.60;;;3.27;;
15293;SDS011;7748;52.474;13.454;2023-03-04T13:04:20;13.67;;;3.00;;
15293;SDS011;7748;52.474;13.454;2023-03-04T13:06:58;5.00;;;2.37;;
15293;SDS011;7748;52.474;13.454;2023-03-04T13:09:40;7.87;;;2.70;;
15293;SDS011;7748;52.474;13.454;2023-03-04T13:12:16;8.20;;;3.07;;
15293;SDS011;7748;52.474;13.454;2023-03-04T13:17:55;6.10;;;3.17;;
15293;SDS011;7748;52.474;13.454;2023-03-04T13:20:31;13.50;;;3.77;;
15293;SDS011;7748;52.474;13.454;2023-03-04T13:23:19;7.27;;;3.23;;
15293;SDS011;7748;52.474;13.454;2023-03-04T13:32:00;12.57;;;3.30;;
15293;SDS011;7748;52.474;13.454;2023-03-04T13:34:46;11.30;;;2.73;;
15293;SDS011;7748;52.474;13.454;2023-03-04T13:37:25;12.67;;;3.87;;
15293;SDS011;7748;52.474;13.454;2023-03-04T13:45:57;6.87;;;2.37;;
15293;SDS011;7748;52.474;13.454;2023-03-04T13:48:57;7.50;;;3.33;;
15293;SDS011;7748;52.474;13.454;2023-03-04T13:51:30;11.43;;;3.07;;
15293;SDS011;7748;52.474;13.454;2023-03-04T13:54:06;11.17;;;4.07;;
15293;SDS011;7748;52.474;13.454;2023-03-04T13:56:44;10.03;;;3.17;;
15293;SDS011;7748;52.474;13.454;2023-03-04T13:59:26;9.97;;;3.50;;
15293;SDS011;7748;52.474;13.454;2023-03-04T14:01:57;16.27;;;4.43;;
15293;SDS011;7748;52.474;13.454;2023-03-04T14:04:28;10.47;;;3.03;;
15293;SDS011;7748;52.474;13.454;2023-03-04T14:07:00;11.87;;;3.67;;
15293;SDS011;7748;52.474;13.454;2023-03-04T14:09:34;11.27;;;3.07;;
15293;SDS011;7748;52.474;13.454;2023-03-04T14:12:02;9.00;;;3.17;;
15293;SDS011;7748;52.474;13.454;2023-03-04T14:14:41;19.50;;;3.30;;
15293;SDS011;7748;52.474;13.454;2023-03-04T14:17:16;12.27;;;3.00;;
15293;SDS011;7748;52.474;13.454;2023-03-04T14:19:47;11.13;;;2.97;;
15293;SDS011;7748;52.474;13.454;2023-03-04T14:22:21;11.80;;;3.17;;
15293;SDS011;7748;52.474;13.454;2023-03-04T14:24:55;10.43;;;3.50;;
15293;SDS011;7748;52.474;13.454;2023-03-04T14:27:27;18.07;;;3.83;;
15293;SDS011;7748;52.474;13.454;2023-03-04T14:29:58;12.73;;;3.47;;
15293;SDS011;7748;52.474;13.454;2023-03-04T14:32:27;10.50;;;3.37;;
15293;SDS011;7748;52.474;13.454;2023-03-04T14:34:58;13.10;;;3.53;;
15293;SDS011;7748;52.474;13.454;2023-03-04T14:37:32;10.63;;;3.17;;
15293;SDS011;7748;52.474;13.454;2023-03-04T14:40:05;16.00;;;3.93;;
15293;SDS011;7748;52.474;13.454;2023-03-04T14:42:35;11.70;;;3.23;;
15293;SDS011;7748;52.474;13.454;2023-03-04T14:45:09;13.17;;;3.97;;
15293;SDS011;7748;52.474;13.454;2023-03-04T14:47:43;19.23;;;4.23;;
15293;SDS011;7748;52.474;13.454;2023-03-04T14:50:13;15.30;;;4.03;;
15293;SDS011;7748;52.474;13.454;2023-03-04T14:52:44;16.27;;;4.00;;
15293;SDS011;7748;52.474;13.454;2023-03-04T14:55:18;8.33;;;3.40;;
15293;SDS011;7748;52.474;13.454;2023-03-04T14:57:48;7.60;;;3.30;;
15293;SDS011;7748;52.474;13.454;2023-03-04T15:00:25;15.27;;;3.83;;
15293;SDS011;7748;52.474;13.454;2023-03-04T15:02:56;11.50;;;3.27;;
15293;SDS011;7748;52.474;13.454;2023-03-04T15:05:26;12.97;;;4.20;;
15293;SDS011;7748;52.474;13.454;2023-03-04T15:07:57;13.73;;;4.20;;
15293;SDS011;7748;52.474;13.454;2023-03-04T15:10:27;8.93;;;3.10;;
15293;SDS011;7748;52.474;13.454;2023-03-04T15:12:57;16.37;;;3.80;;
15293;SDS011;7748;52.474;13.454;2023-03-04T15:15:34;18.80;;;4.00;;
15293;SDS011;7748;52.474;13.454;2023-03-04T15:18:13;16.77;;;4.10;;